Time;durP1;ratioP1;P1;durP2;ratioP2;P2;SDS_P1;SDS_P2;PMS_P1;PMS_P2;Temp;Humidity;BMP_temperature;BMP_pressure;BME280_temperature;BME280_humidity;BME280_pressure;Samples;Min_cycle;Max_cycle;Signal;HPM_P1;HPM_P2
2022/12/14 00:01:33;;;;;;;194.30;65.70;;;;;;;-13.23;100.00;99078.79;99562;1367;23182;-34
2022/12/14 00:03:59;;;;;;;232.00;77.70;;;;;;;-13.30;100.00;99072.05;99512;1349;23321;-28
2022/12/14 00:06:26;;;;;;;206.00;70.40;;;;;;;-13.39;100.00;99068.89;99388;1350;24354;-34
2022/12/14 00:08:53;;;;;;;159.80;36.70;;;;;;;-13.48;100.00;99067.15;99519;1349;22748;-33
2022/12/14 00:11:21;;;;;;;148.80;40.60;;;;;;;-13.52;100.00;99067.66;99548;1350;22685;-29
2022/12/14 00:13:49;;;;;;;140.00;40.80;;;;;;;-13.53;100.00;99066.65;99540;1366;22809;-29
2022/12/14 00:16:16;;;;;;;137.80;39.40;;;;;;;-13.58;100.00;99064.61;99615;1351;22731;-29
2022/12/14 00:18:42;;;;;;;117.30;35.10;;;;;;;-13.57;100.00;99065.95;99444;1350;24348;-34
2022/12/14 00:21:12;;;;;;;171.20;51.00;;;;;;;-13.57;100.00;99065.93;99499;1369;24217;-34
2022/12/14 00:23:39;;;;;;;572.40;149.70;;;;;;;-13.59;100.00;99058.80;99524;1350;24457;-30
2022/12/14 00:26:18;;;;;;;534.10;115.10;;;;;;;-13.60;100.00;99057.27;99503;1359;22734;-32
2022/12/14 00:28:44;;;;;;;307.10;80.80;;;;;;;-13.67;100.00;99063.36;99433;1349;22862;-33
2022/12/14 00:31:10;;;;;;;207.00;59.70;;;;;;;-13.70;100.00;99065.54;99298;1360;24750;-28
2022/12/14 00:33:35;;;;;;;636.80;141.20;;;;;;;-13.72;100.00;99065.78;99543;1349;22732;-34
2022/12/14 00:36:01;;;;;;;874.80;243.70;;;;;;;-13.76;100.00;99064.38;99471;1349;24374;-28
2022/12/14 00:38:27;;;;;;;542.90;150.40;;;;;;;-13.75;100.00;99059.00;99568;1350;23063;-32
2022/12/14 00:40:53;;;;;;;149.10;44.10;;;;;;;-13.71;100.00;99055.41;99470;1348;23080;-28
2022/12/14 00:43:19;;;;;;;296.10;92.80;;;;;;;-13.64;100.00;99043.80;99699;1350;24804;-32
2022/12/14 00:45:45;;;;;;;347.90;83.60;;;;;;;-13.67;100.00;99048.89;99418;1366;24474;-29
2022/12/14 00:48:11;;;;;;;451.20;136.70;;;;;;;-13.74;100.00;99055.17;99509;1340;24354;-33
2022/12/14 00:50:37;;;;;;;354.20;105.90;;;;;;;-13.83;100.00;99054.48;99466;1357;22857;-28
2022/12/14 00:53:03;;;;;;;104.80;32.50;;;;;;;-13.89;100.00;99051.92;99475;1353;23191;-28
2022/12/14 00:55:28;;;;;;;240.30;92.30;;;;;;;-13.88;100.00;99053.77;99365;1346;22617;-33
2022/12/14 00:57:54;;;;;;;191.80;57.50;;;;;;;-13.79;100.00;99059.48;99498;1365;24837;-29
2022/12/14 01:00:19;;;;;;;145.30;42.20;;;;;;;-13.71;100.00;99054.23;99514;1369;23347;-33
2022/12/14 01:02:46;;;;;;;113.60;29.30;;;;;;;-13.70;100.00;99051.05;99518;1350;22716;-33
2022/12/14 01:05:12;;;;;;;146.80;39.90;;;;;;;-13.76;100.00;99051.47;99497;1350;22676;-29
2022/12/14 01:07:37;;;;;;;99.50;32.90;;;;;;;-13.87;100.00;99048.06;99523;1349;23333;-34
2022/12/14 01:10:03;;;;;;;153.70;42.80;;;;;;;-13.92;100.00;99045.32;99553;1350;24258;-33
2022/12/14 01:12:29;;;;;;;161.60;46.10;;;;;;;-13.98;100.00;99045.33;99716;1350;22819;-33
2022/12/14 01:14:54;;;;;;;120.70;39.80;;;;;;;-13.93;100.00;99042.59;99462;1349;24315;-34
2022/12/14 01:17:20;;;;;;;95.40;30.90;;;;;;;-13.86;100.00;99047.15;99473;1350;24455;-29
2022/12/14 01:19:46;;;;;;;249.20;53.70;;;;;;;-13.75;100.00;99046.80;99390;1369;22596;-33
2022/12/14 01:22:11;;;;;;;134.50;37.30;;;;;;;-13.77;100.00;99050.63;99464;1349;24342;-29
2022/12/14 01:24:37;;;;;;;133.00;39.40;;;;;;;-13.87;100.00;99045.29;99558;1366;22716;-28
2022/12/14 01:27:02;;;;;;;220.10;51.70;;;;;;;-13.96;100.00;99040.45;99559;1356;22718;-29
2022/12/14 01:29:28;;;;;;;166.70;43.00;;;;;;;-13.87;100.00;99039.98;99587;1349;22684;-29
2022/12/14 01:31:53;;;;;;;114.00;43.80;;;;;;;-13.84;100.00;99043.31;99456;1369;24336;-29
2022/12/14 01:34:19;;;;;;;150.60;32.30;;;;;;;-13.92;100.00;99042.73;99416;1350;24280;-29
2022/12/14 01:36:45;;;;;;;76.90;25.00;;;;;;;-13.97;100.00;99043.08;99621;1350;22686;-33
2022/12/14 01:39:12;;;;;;;193.70;43.40;;;;;;;-13.95;100.00;99039.73;99558;1350;22730;-29
2022/12/14 01:41:40;;;;;;;165.10;42.00;;;;;;;-13.96;100.00;99032.55;99484;1369;23209;-32
2022/12/14 01:44:45;;;;;;;70.60;24.60;;;;;;;-13.95;100.00;99027.00;99491;1349;23080;-28
2022/12/14 01:47:21;;;;;;;89.60;21.70;;;;;;;-14.03;100.00;99021.11;99449;1351;22853;-28
2022/12/14 01:49:56;;;;;;;174.30;46.90;;;;;;;-14.08;100.00;99014.39;99454;1368;24456;-33
2022/12/14 01:52:33;;;;;;;109.50;38.10;;;;;;;-14.09;100.00;99012.17;99497;1368;24303;-28
2022/12/14 01:55:24;;;;;;;130.80;40.50;;;;;;;-14.08;100.00;99008.34;99438;1342;24299;-28
2022/12/14 01:57:53;;;;;;;92.80;31.50;;;;;;;-14.06;100.00;99012.59;99528;1368;23210;-29
2022/12/14 02:00:19;;;;;;;60.30;15.20;;;;;;;-13.97;100.00;99012.27;99563;1350;24440;-34
2022/12/14 02:02:59;;;;;;;85.50;26.60;;;;;;;-13.86;100.00;99007.91;99447;1368;22885;-28
2022/12/14 02:05:27;;;;;;;81.70;29.70;;;;;;;-13.76;100.00;99013.27;99528;1368;22613;-29
2022/12/14 02:07:53;;;;;;;142.00;41.80;;;;;;;-13.74;100.00;99008.86;99560;1367;22819;-34
2022/12/14 02:10:20;;;;;;;123.70;41.10;;;;;;;-13.81;100.00;99008.80;99591;1350;22761;-29
2022/12/14 02:12:48;;;;;;;94.70;28.90;;;;;;;-13.97;100.00;99014.84;99522;1368;24345;-29
2022/12/14 02:15:13;;;;;;;142.40;41.50;;;;;;;-13.97;100.00;99013.66;99440;1356;24378;-28
2022/12/14 02:17:44;;;;;;;86.80;27.20;;;;;;;-13.96;100.00;99006.73;99493;1350;23211;-33
2022/12/14 02:20:11;;;;;;;72.90;23.20;;;;;;;-13.84;100.00;99013.90;99418;1349;25553;-29
2022/12/14 02:23:00;;;;;;;46.40;17.80;;;;;;;-13.84;100.00;99008.21;99488;1351;22625;-34
2022/12/14 02:25:39;;;;;;;58.20;20.90;;;;;;;-13.86;100.00;99008.80;99587;1367;24331;-33
2022/12/14 02:28:19;;;;;;;76.60;26.20;;;;;;;-13.84;100.00;99002.36;99582;1368;22627;-33
2022/12/14 02:30:50;;;;;;;94.70;26.20;;;;;;;-13.82;100.00;99006.08;99594;1354;23093;-33
2022/12/14 02:33:35;;;;;;;89.00;28.10;;;;;;;-13.88;100.00;99004.02;99524;1353;23016;-29
2022/12/14 02:36:03;;;;;;;100.40;27.60;;;;;;;-13.88;100.00;98997.85;99429;1367;23012;-30
2022/12/14 02:38:44;;;;;;;61.20;15.80;;;;;;;-13.91;100.00;98998.14;99616;1369;22637;-34
2022/12/14 02:41:37;;;;;;;61.70;24.30;;;;;;;-13.88;100.00;99002.51;99627;1350;22724;-34
2022/12/14 02:44:22;;;;;;;98.70;31.00;;;;;;;-13.82;100.00;99001.41;99548;1349;24456;-28
2022/12/14 02:46:56;;;;;;;89.10;29.20;;;;;;;-13.81;100.00;99000.69;99625;1360;22655;-35
2022/12/14 02:49:46;;;;;;;80.70;26.80;;;;;;;-13.78;100.00;98991.63;99491;1359;22586;-33
2022/12/14 02:52:37;;;;;;;63.50;24.90;;;;;;;-13.74;100.00;98986.67;99492;1349;24831;-34
2022/12/14 02:55:11;;;;;;;67.30;25.20;;;;;;;-13.73;100.00;98984.73;99498;1367;24324;-32
2022/12/14 02:57:43;;;;;;;87.00;28.20;;;;;;;-13.73;100.00;98990.77;99376;1350;23147;-28
2022/12/14 03:00:10;;;;;;;81.00;25.80;;;;;;;-13.76;100.00;98994.48;99534;1346;24326;-33
2022/12/14 03:02:39;;;;;;;57.90;20.80;;;;;;;-13.86;100.00;98996.05;99497;1349;23187;-28
2022/12/14 03:05:05;;;;;;;80.30;24.00;;;;;;;-14.01;100.00;98991.42;99602;1354;26528;-32
2022/12/14 03:07:46;;;;;;;77.10;25.70;;;;;;;-14.13;100.00;98988.90;99579;1351;24359;-32
2022/12/14 03:10:29;;;;;;;60.40;22.20;;;;;;;-14.23;100.00;98982.23;99467;1360;23079;-29
2022/12/14 03:12:59;;;;;;;104.40;30.40;;;;;;;-14.29;100.00;98979.35;99604;1361;22596;-32
2022/12/14 03:15:25;;;;;;;97.70;36.30;;;;;;;-14.28;100.00;98980.33;99445;1350;22861;-29
2022/12/14 03:17:51;;;;;;;72.00;24.30;;;;;;;-14.26;100.00;98984.89;99503;1350;22833;-34
2022/12/14 03:20:20;;;;;;;74.90;25.00;;;;;;;-14.23;100.00;98985.13;99516;1350;24445;-33
2022/12/14 03:22:54;;;;;;;60.00;22.60;;;;;;;-14.18;100.00;98985.66;99479;1351;22792;-33
2022/12/14 03:25:24;;;;;;;66.20;24.70;;;;;;;-14.17;100.00;98980.98;99613;1350;22652;-35
2022/12/14 03:27:59;;;;;;;98.30;27.60;;;;;;;-14.16;100.00;98977.50;99531;1350;22613;-30
2022/12/14 03:30:24;;;;;;;101.20;33.80;;;;;;;-14.06;100.00;98973.55;99527;1350;23067;-34
2022/12/14 03:32:55;;;;;;;111.50;33.40;;;;;;;-13.94;100.00;98977.75;99589;1353;23019;-34
2022/12/14 03:35:28;;;;;;;64.90;22.00;;;;;;;-13.84;100.00;98980.86;99432;1365;23511;-35
2022/12/14 03:37:55;;;;;;;;;;;;;;;-13.80;100.00;98980.17;99583;1350;22844;-33
2022/12/14 03:40:25;;;;;;;80.40;29.60;;;;;;;-13.71;100.00;98982.46;99554;1349;24342;-27
2022/12/14 03:43:04;;;;;;;103.10;27.70;;;;;;;-13.67;100.00;98977.98;99523;1349;23156;-29
2022/12/14 03:46:00;;;;;;;9.30;6.00;;;;;;;-13.62;100.00;98977.47;99537;1369;24298;-34
2022/12/14 03:48:31;;;;;;;93.90;30.60;;;;;;;-13.57;100.00;98971.44;99535;1369;23205;-29
2022/12/14 03:51:17;;;;;;;80.30;31.90;;;;;;;-13.54;100.00;98970.64;99565;1350;22586;-33
2022/12/14 03:53:46;;;;;;;88.00;30.10;;;;;;;-13.53;100.00;98974.36;99541;1366;23084;-33
2022/12/14 03:56:17;;;;;;;65.30;26.20;;;;;;;-13.52;100.00;98972.10;99591;1349;24341;-34
2022/12/14 03:59:07;;;;;;;116.40;33.30;;;;;;;-13.51;100.00;98968.80;99632;1361;22902;-34
2022/12/14 04:01:45;;;;;;;78.00;29.90;;;;;;;-13.46;100.00;98968.11;99495;1345;22814;-33
2022/12/14 04:04:17;;;;;;;97.40;38.60;;;;;;;-13.48;100.00;98962.66;99565;1363;24315;-28
2022/12/14 04:06:56;;;;;;;57.20;23.30;;;;;;;-13.49;100.00;98964.06;99579;1350;22595;-30
2022/12/14 04:09:41;;;;;;;65.50;26.80;;;;;;;-13.49;100.00;98963.21;99494;1350;22707;-27
2022/12/14 04:19:47;;;;;;;;;;;;;;;-13.58;100.00;98946.67;99492;1362;23067;-28
2022/12/14 04:22:14;;;;;;;193.10;54.70;;;;;;;-13.56;100.00;98942.29;99565;1341;24314;-30
2022/12/14 04:27:46;;;;;;;247.90;69.70;;;;;;;-13.58;100.00;98936.91;99536;1367;23192;-28
2022/12/14 04:30:12;;;;;;;334.40;104.10;;;;;;;-13.58;100.00;98939.64;99593;1350;22727;-28
2022/12/14 04:32:44;;;;;;;345.80;104.50;;;;;;;-13.56;100.00;98941.77;99548;1354;23063;-33
2022/12/14 04:35:27;;;;;;;313.90;90.60;;;;;;;-13.55;100.00;98937.28;99578;1356;24445;-33
2022/12/14 05:15:20;;;;;;;158.30;45.60;;;;;;;-13.41;100.00;98894.37;99099;1370;558295;-33
2022/12/14 05:17:45;;;;;;;85.90;31.70;;;;;;;-13.17;100.00;98889.94;98877;1354;389028;-33
2022/12/14 05:20:13;;;;;;;83.00;25.60;;;;;;;-13.10;100.00;98890.52;98924;1373;22676;-28
2022/12/14 05:22:39;;;;;;;84.30;29.70;;;;;;;-13.12;100.00;98892.54;98991;1363;22744;-29
2022/12/14 05:25:05;;;;;;;85.50;30.50;;;;;;;-13.14;100.00;98887.76;98973;1356;22733;-28
2022/12/14 05:27:31;;;;;;;138.50;45.80;;;;;;;-13.11;100.00;98882.83;99204;1353;22681;-32
2022/12/14 05:29:57;;;;;;;146.20;42.80;;;;;;;-13.09;100.00;98880.67;99020;1372;23072;-34
2022/12/14 05:32:23;;;;;;;95.10;25.30;;;;;;;-13.06;100.00;98877.28;98972;1354;22599;-30
2022/12/14 05:34:48;;;;;;;80.20;27.90;;;;;;;-13.00;100.00;98876.34;98946;1357;23215;-29
2022/12/14 05:37:13;;;;;;;85.80;28.90;;;;;;;-12.96;100.00;98872.58;98952;1359;22917;-30
2022/12/14 05:39:39;;;;;;;123.80;46.90;;;;;;;-12.93;100.00;98868.48;98815;1357;22995;-34
2022/12/14 05:42:04;;;;;;;101.90;31.70;;;;;;;-12.90;100.00;98862.66;98924;1353;22804;-30
2022/12/14 05:44:30;;;;;;;126.80;39.80;;;;;;;-12.88;100.00;98856.58;98932;1358;23176;-34
2022/12/14 05:46:55;;;;;;;123.80;38.00;;;;;;;-12.88;100.00;98852.42;98978;1354;23015;-29
2022/12/14 05:49:21;;;;;;;97.20;29.20;;;;;;;-12.89;100.00;98849.34;98918;1372;24310;-33
2022/12/14 05:51:47;;;;;;;114.60;36.20;;;;;;;-12.89;100.00;98845.73;98937;1353;22735;-33
2022/12/14 05:54:12;;;;;;;81.60;31.80;;;;;;;-12.91;100.00;98844.45;98892;1372;22915;-31
2022/12/14 05:56:38;;;;;;;62.40;24.60;;;;;;;-12.92;100.00;98843.45;98953;1372;22935;-28
2022/12/14 05:59:03;;;;;;;88.70;28.20;;;;;;;-12.93;100.00;98842.63;98932;1356;22971;-34
2022/12/14 06:01:29;;;;;;;110.80;30.90;;;;;;;-12.89;100.00;98845.23;99019;1353;22980;-30
2022/12/14 06:03:55;;;;;;;127.80;35.00;;;;;;;-12.85;100.00;98843.34;98990;1353;22856;-29
2022/12/14 06:06:20;;;;;;;134.20;43.80;;;;;;;-12.80;100.00;98844.50;98996;1372;24342;-30
2022/12/14 06:08:46;;;;;;;105.00;36.70;;;;;;;-12.76;100.00;98847.93;98952;1372;23091;-29
2022/12/14 06:11:15;;;;;;;87.40;27.60;;;;;;;-12.74;100.00;98849.04;98966;1353;22838;-27
2022/12/14 06:13:40;;;;;;;88.80;27.50;;;;;;;-12.71;100.00;98847.02;99009;1372;24476;-34
2022/12/14 06:16:11;;;;;;;90.20;32.90;;;;;;;-12.67;100.00;98844.31;98890;1356;22724;-29
2022/12/14 06:18:45;;;;;;;111.20;36.60;;;;;;;-12.65;100.00;98846.48;98905;1362;24419;-32
2022/12/14 06:21:11;;;;;;;106.90;29.70;;;;;;;-12.64;100.00;98845.04;98934;1371;24140;-33
2022/12/14 06:23:37;;;;;;;127.20;42.60;;;;;;;-12.66;100.00;98844.45;98926;1372;22852;-29
2022/12/14 06:26:03;;;;;;;122.10;38.50;;;;;;;-12.65;100.00;98846.98;99033;1353;22864;-34
2022/12/14 06:28:28;;;;;;;142.10;45.50;;;;;;;-12.64;100.00;98840.90;98904;1353;23167;-35
2022/12/14 06:30:54;;;;;;;105.00;34.30;;;;;;;-12.63;100.00;98838.95;98876;1346;22970;-29
2022/12/14 06:33:19;;;;;;;116.40;36.00;;;;;;;-12.65;100.00;98837.14;98882;1353;24429;-35
2022/12/14 06:35:45;;;;;;;145.10;42.00;;;;;;;-12.64;100.00;98838.13;98866;1354;23073;-29
2022/12/14 06:38:12;;;;;;;107.50;33.20;;;;;;;-12.66;100.00;98835.27;99001;1353;22732;-31
2022/12/14 06:40:38;;;;;;;102.40;29.40;;;;;;;-12.64;100.00;98829.35;99030;1346;23207;-33
2022/12/14 06:43:03;;;;;;;133.60;37.10;;;;;;;-12.61;100.00;98826.96;98896;1369;22639;-33
2022/12/14 06:45:29;;;;;;;140.40;46.90;;;;;;;-12.58;100.00;98820.45;98913;1356;22954;-29
2022/12/14 06:47:55;;;;;;;152.70;40.50;;;;;;;-12.55;100.00;98822.58;99024;1362;22726;-34
2022/12/14 06:50:20;;;;;;;150.10;42.90;;;;;;;-12.49;100.00;98824.73;98949;1357;22850;-33
2022/12/14 06:52:49;;;;;;;130.20;41.80;;;;;;;-12.45;100.00;98821.92;98874;1353;22860;-27
2022/12/14 06:55:15;;;;;;;126.70;41.60;;;;;;;-12.36;100.00;98823.64;98859;1353;22859;-33
2022/12/14 06:57:40;;;;;;;194.90;58.90;;;;;;;-12.27;100.00;98822.54;98941;1374;24902;-31
2022/12/14 07:00:10;;;;;;;140.60;40.30;;;;;;;-12.20;100.00;98820.85;98926;1373;23651;-30
2022/12/14 07:02:37;;;;;;;181.40;51.60;;;;;;;-12.13;100.00;98820.54;98951;1346;22572;-29
2022/12/14 07:05:04;;;;;;;175.00;43.10;;;;;;;-12.08;100.00;98819.47;98955;1353;22751;-33
2022/12/14 07:07:32;;;;;;;158.80;42.90;;;;;;;-12.04;100.00;98815.30;98886;1360;22710;-29
2022/12/14 07:09:58;;;;;;;78.30;23.10;;;;;;;-12.00;100.00;98812.34;99017;1358;23202;-33
2022/12/14 07:12:23;;;;;;;119.20;33.90;;;;;;;-11.95;100.00;98810.90;98874;1371;22845;-32
2022/12/14 07:14:49;;;;;;;132.20;39.90;;;;;;;-11.91;100.00;98806.76;98970;1350;23071;-34
2022/12/14 07:17:14;;;;;;;148.30;46.10;;;;;;;-11.85;100.00;98807.00;98949;1357;23102;-34
2022/12/14 07:19:42;;;;;;;132.10;48.80;;;;;;;-11.81;100.00;98806.77;98945;1374;22720;-34
2022/12/14 07:22:08;;;;;;;113.40;37.90;;;;;;;-11.76;100.00;98806.35;98995;1353;22793;-30
2022/12/14 07:24:33;;;;;;;102.70;32.20;;;;;;;-11.70;100.00;98804.20;98855;1353;22603;-35
2022/12/14 07:26:59;;;;;;;126.50;45.00;;;;;;;-11.65;100.00;98803.95;99018;1365;22723;-27
2022/12/14 07:29:24;;;;;;;130.80;45.60;;;;;;;-11.60;100.00;98805.97;98977;1353;22595;-29
2022/12/14 07:31:50;;;;;;;101.80;42.40;;;;;;;-11.54;100.00;98810.86;98984;1373;22866;-33
2022/12/14 07:34:16;;;;;;;103.50;40.70;;;;;;;-11.48;100.00;98807.98;98923;1369;22750;-28
2022/12/14 07:36:42;;;;;;;94.00;31.20;;;;;;;-11.41;100.00;98806.80;98953;1347;23078;-30
2022/12/14 07:39:13;;;;;;;114.70;37.00;;;;;;;-11.34;100.00;98805.90;98959;1346;23201;-32
2022/12/14 07:41:39;;;;;;;125.80;42.90;;;;;;;-11.26;100.00;98805.05;98883;1359;24331;-28
2022/12/14 07:44:04;;;;;;;123.10;44.80;;;;;;;-11.19;100.00;98802.09;98936;1361;22784;-33
2022/12/14 07:46:30;;;;;;;93.40;33.00;;;;;;;-11.13;100.00;98797.12;99088;1357;22849;-34
2022/12/14 07:48:57;;;;;;;118.90;36.90;;;;;;;-11.05;100.00;98790.66;98894;1357;24751;-28
2022/12/14 07:51:30;;;;;;;87.80;30.70;;;;;;;-10.98;100.00;98789.45;99105;1371;22832;-28
2022/12/14 07:53:56;;;;;;;;;;;;;;;-10.92;100.00;98785.52;98979;1353;24323;-35
2022/12/14 07:56:23;;;;;;;66.20;28.40;;;;;;;-10.85;100.00;98786.37;98862;1346;23223;-29
2022/12/14 07:58:49;;;;;;;138.90;44.00;;;;;;;-10.75;100.00;98782.09;98953;1370;22818;-29
2022/12/14 08:01:17;;;;;;;93.30;31.90;;;;;;;-10.65;100.00;98781.53;99076;1366;22670;-30
2022/12/14 08:03:45;;;;;;;106.30;34.10;;;;;;;-10.54;100.00;98783.06;99048;1374;22910;-28
2022/12/14 08:06:12;;;;;;;72.40;28.40;;;;;;;-10.43;100.00;98778.84;99030;1373;22743;-29
2022/12/14 08:08:38;;;;;;;83.90;29.40;;;;;;;-10.30;100.00;98778.17;98961;1364;22856;-33
2022/12/14 08:11:05;;;;;;;87.70;30.10;;;;;;;-10.18;100.00;98776.45;98976;1353;24267;-33
2022/12/14 08:13:31;;;;;;;89.20;32.60;;;;;;;-10.03;100.00;98780.31;98870;1370;23037;-28
2022/12/14 08:16:05;;;;;;;88.50;30.40;;;;;;;-9.88;100.00;98780.90;98899;1374;22788;-29
2022/12/14 08:18:32;;;;;;;;;;;;;;;-9.72;100.00;98777.73;99190;1369;24438;-33
2022/12/14 08:20:57;;;;;;;;;;;;;;;-9.57;100.00;98777.97;98976;1374;23195;-30
2022/12/14 08:23:23;;;;;;;134.00;51.10;;;;;;;-9.47;100.00;98776.17;98951;1374;22793;-34
2022/12/14 08:25:55;;;;;;;44.00;16.40;;;;;;;-9.38;100.00;98776.22;98923;1369;22854;-33
2022/12/14 08:28:21;;;;;;;141.00;66.60;;;;;;;-9.30;100.00;98771.95;98899;1369;23086;-29
2022/12/14 08:30:46;;;;;;;105.80;41.20;;;;;;;-9.21;100.00;98775.39;98997;1363;22627;-29
2022/12/14 08:33:12;;;;;;;173.20;59.40;;;;;;;-9.00;100.00;98778.52;99055;1360;22732;-31
2022/12/14 08:35:37;;;;;;;171.90;60.80;;;;;;;-8.73;100.00;98780.74;98958;1364;24447;-32
2022/12/14 08:38:03;;;;;;;188.90;62.70;;;;;;;-8.48;100.00;98783.10;98947;1373;22729;-32
2022/12/14 08:40:28;;;;;;;300.50;93.40;;;;;;;-8.22;100.00;98780.94;99048;1374;22842;-28
2022/12/14 08:42:54;;;;;;;226.10;76.00;;;;;;;-7.96;100.00;98779.55;99067;1351;23101;-33
2022/12/14 08:45:20;;;;;;;249.00;77.60;;;;;;;-7.75;100.00;98777.33;98903;1373;23189;-29
2022/12/14 08:47:45;;;;;;;344.90;96.00;;;;;;;-7.49;100.00;98776.40;98856;1343;22838;-29
2022/12/14 08:50:12;;;;;;;298.40;93.50;;;;;;;-7.25;100.00;98778.64;98979;1353;22859;-35
2022/12/14 08:52:38;;;;;;;257.80;81.00;;;;;;;-7.04;100.00;98774.31;98983;1372;22738;-29
2022/12/14 08:55:05;;;;;;;279.30;85.50;;;;;;;-6.84;100.00;98775.64;98939;1373;24253;-33
2022/12/14 08:57:30;;;;;;;262.80;79.40;;;;;;;-6.69;100.00;98774.61;98952;1364;22733;-29
2022/12/14 08:59:56;;;;;;;246.20;86.50;;;;;;;-6.55;100.00;98770.92;99119;1358;22617;-33
2022/12/14 09:02:21;;;;;;;261.60;89.90;;;;;;;-6.40;100.00;98769.98;99018;1357;22836;-29
2022/12/14 09:04:47;;;;;;;190.50;66.70;;;;;;;-6.22;100.00;98769.11;98871;1345;24443;-34
2022/12/14 09:07:12;;;;;;;117.90;43.20;;;;;;;-6.07;100.00;98764.63;99082;1353;22987;-33
2022/12/14 09:09:38;;;;;;;135.20;43.00;;;;;;;-5.84;100.00;98751.80;98899;1353;24560;-30
2022/12/14 09:12:06;;;;;;;120.30;44.40;;;;;;;-5.64;100.00;98746.88;98942;1357;22720;-29
2022/12/14 09:14:33;;;;;;;113.40;44.20;;;;;;;-5.46;100.00;98741.23;98958;1373;23959;-34
2022/12/14 09:16:58;;;;;;;85.40;36.70;;;;;;;-5.30;100.00;98736.58;99108;1353;22725;-33
2022/12/14 09:19:24;;;;;;;95.10;33.60;;;;;;;-5.20;100.00;98735.93;98873;1372;24275;-33
2022/12/14 09:21:51;;;;;;;92.50;39.70;;;;;;;-5.00;100.00;98730.98;99069;1362;22854;-29
2022/12/14 09:24:17;;;;;;;112.10;38.50;;;;;;;-4.82;100.00;98726.52;98881;1346;22846;-33
2022/12/14 09:26:42;;;;;;;80.10;31.60;;;;;;;-4.70;100.00;98720.68;98982;1357;22860;-29
2022/12/14 09:29:14;;;;;;;100.60;32.90;;;;;;;-4.65;100.00;98714.77;99038;1369;22732;-30
2022/12/14 09:31:40;;;;;;;121.20;38.20;;;;;;;-4.58;100.00;98714.74;98983;1365;23863;-29
2022/12/14 09:34:05;;;;;;;187.60;52.10;;;;;;;-4.40;100.00;98713.65;98845;1372;23013;-33
2022/12/14 09:36:31;;;;;;;105.10;36.80;;;;;;;-4.16;100.00;98711.27;98960;1373;22706;-30
2022/12/14 09:38:58;;;;;;;84.20;29.50;;;;;;;-3.90;100.00;98711.52;98971;1374;22863;-32
2022/12/14 09:41:41;;;;;;;83.10;31.40;;;;;;;-3.61;100.00;98710.06;98956;1357;22750;-30
2022/12/14 09:44:24;;;;;;;95.20;30.10;;;;;;;-3.33;100.00;98702.52;98886;1350;22850;-30
2022/12/14 09:46:56;;;;;;;62.80;26.90;;;;;;;-3.30;100.00;98689.50;99020;1372;22645;-30
2022/12/14 09:49:33;;;;;;;101.90;30.20;;;;;;;-3.19;100.00;98681.23;99109;1363;24445;-29
2022/12/14 09:52:01;;;;;;;68.40;25.50;;;;;;;-3.17;100.00;98679.25;98911;1357;23089;-29
2022/12/14 09:54:30;;;;;;;81.90;31.00;;;;;;;-3.15;100.00;98674.27;98915;1346;22853;-30
2022/12/14 09:56:57;;;;;;;112.10;36.60;;;;;;;-3.14;100.00;98668.09;98900;1353;22732;-34
2022/12/14 09:59:22;;;;;;;105.40;32.10;;;;;;;-3.18;100.00;98668.52;99092;1347;22717;-41
2022/12/14 10:01:54;;;;;;;177.10;42.70;;;;;;;-3.14;100.00;98666.98;98908;1356;22719;-29
2022/12/14 10:04:29;;;;;;;98.20;34.30;;;;;;;-3.08;100.00;98660.69;99054;1350;25543;-29
2022/12/14 10:07:07;;;;;;;114.50;41.20;;;;;;;-2.98;100.00;98655.49;98952;1362;22698;-35
2022/12/14 10:09:54;;;;;;;97.30;43.30;;;;;;;-2.87;100.00;98650.05;98941;1373;22638;-30
2022/12/14 10:12:34;;;;;;;137.00;47.50;;;;;;;-2.72;100.00;98645.20;98978;1353;22612;-29
2022/12/14 10:15:14;;;;;;;98.30;43.70;;;;;;;-2.55;100.00;98633.08;98936;1372;24349;-33
2022/12/14 10:17:56;;;;;;;70.10;36.50;;;;;;;-2.38;99.79;98629.96;98978;1354;23015;-33
2022/12/14 10:20:47;;;;;;;61.80;28.20;;;;;;;-2.31;99.07;98629.60;99047;1373;22600;-30
2022/12/14 10:23:14;;;;;;;80.10;41.30;;;;;;;-2.12;99.44;98630.36;99059;1353;22851;-28
2022/12/14 10:25:41;;;;;;;77.50;39.50;;;;;;;-2.00;98.58;98621.41;98991;1369;22774;-33
2022/12/14 10:28:12;;;;;;;67.90;31.50;;;;;;;-1.92;96.77;98622.84;98957;1363;25549;-33
2022/12/14 10:30:39;;;;;;;56.30;25.40;;;;;;;-1.76;95.37;98615.40;99033;1353;22694;-33
2022/12/14 10:33:12;;;;;;;64.40;30.80;;;;;;;-1.64;94.80;98609.20;98866;1360;25645;-29
2022/12/14 10:35:47;;;;;;;64.20;24.90;;;;;;;-1.46;94.43;98602.54;98888;1374;24267;-32
2022/12/14 10:38:34;;;;;;;40.10;21.20;;;;;;;-1.16;92.27;98600.98;98839;1365;23229;-29
2022/12/14 10:41:29;;;;;;;40.70;19.80;;;;;;;-0.71;89.15;98594.52;99017;1347;22603;-30
2022/12/14 10:44:16;;;;;;;43.50;22.30;;;;;;;-0.36;89.11;98590.17;99044;1353;23021;-30
2022/12/14 10:47:04;;;;;;;38.10;20.10;;;;;;;-0.13;87.74;98578.71;98955;1365;22851;-34
2022/12/14 10:49:37;;;;;;;39.80;16.30;;;;;;;0.05;86.16;98574.23;98978;1372;22848;-34
2022/12/14 10:52:07;;;;;;;31.80;15.50;;;;;;;0.15;84.16;98570.77;98935;1374;22615;-34
2022/12/14 10:54:37;;;;;;;35.70;14.90;;;;;;;-0.02;83.09;98566.23;98960;1359;22739;-31
2022/12/14 10:57:03;;;;;;;30.90;15.50;;;;;;;0.08;83.55;98563.02;99048;1373;22655;-30
2022/12/14 10:59:32;;;;;;;32.50;15.80;;;;;;;0.49;85.47;98564.02;99009;1347;22606;-31
2022/12/14 11:02:04;;;;;;;35.90;17.00;;;;;;;0.98;84.61;98555.63;98973;1353;22784;-30
2022/12/14 11:04:38;;;;;;;27.40;14.30;;;;;;;1.25;75.78;98550.66;99146;1353;25556;-31
2022/12/14 11:44:35;;;;;;;68.50;26.20;;;;;;;3.11;60.18;98492.40;99183;1368;558911;-29
2022/12/14 11:47:05;;;;;;;36.20;18.10;;;;;;;1.90;59.59;98488.83;99075;1352;429477;-32
2022/12/14 11:49:41;;;;;;;33.60;14.60;;;;;;;0.78;60.15;98486.27;99464;1344;26020;-29
2022/12/14 11:52:11;;;;;;;47.70;20.50;;;;;;;-0.16;62.59;98481.21;99443;1357;22651;-29
2022/12/14 11:54:38;;;;;;;26.60;13.80;;;;;;;-0.71;63.92;98472.51;99416;1351;23066;-29
2022/12/14 11:57:17;;;;;;;21.20;13.00;;;;;;;-1.10;65.74;98470.98;99465;1350;24345;-30
2022/12/14 11:59:57;;;;;;;36.70;16.70;;;;;;;-1.33;67.33;98459.82;99391;1344;22718;-34
2022/12/14 12:02:26;;;;;;;27.10;13.50;;;;;;;-1.32;69.12;98454.96;99453;1351;24342;-33
2022/12/14 12:04:55;;;;;;;31.50;14.20;;;;;;;-1.40;69.23;98446.98;99446;1370;22961;-31
2022/12/14 12:07:29;;;;;;;46.70;23.20;;;;;;;-1.56;69.29;98444.95;99443;1354;22728;-34
2022/12/14 12:10:00;;;;;;;49.10;23.50;;;;;;;-1.53;70.34;98440.95;99474;1353;23159;-34
2022/12/14 12:12:25;;;;;;;54.10;22.20;;;;;;;-1.20;71.00;98436.31;99477;1370;24377;-31
2022/12/14 12:14:54;;;;;;;55.60;21.70;;;;;;;-0.91;70.27;98431.60;99472;1366;24339;-34
2022/12/14 12:17:38;;;;;;;52.70;17.70;;;;;;;-0.12;69.37;98423.67;99470;1350;23207;-31
2022/12/14 12:20:12;;;;;;;59.50;22.00;;;;;;;0.61;67.33;98416.86;99471;1365;24321;-34
2022/12/14 12:22:37;;;;;;;44.90;22.30;;;;;;;1.08;66.06;98404.58;99245;1357;22806;-34
2022/12/14 12:25:04;;;;;;;47.90;16.00;;;;;;;1.37;65.84;98396.95;99453;1367;22864;-30
2022/12/14 12:27:30;;;;;;;55.00;24.00;;;;;;;1.48;65.61;98392.02;99298;1346;23082;-35
2022/12/14 12:30:06;;;;;;;38.80;16.60;;;;;;;1.53;64.29;98388.37;99304;1360;24323;-30
2022/12/14 12:32:34;;;;;;;44.10;20.70;;;;;;;1.50;64.48;98386.41;99456;1369;25329;-30
2022/12/14 12:35:02;;;;;;;44.90;17.40;;;;;;;1.39;64.25;98385.02;99463;1370;22684;-34
2022/12/14 12:37:32;;;;;;;55.30;21.20;;;;;;;1.32;63.77;98381.38;99556;1369;22790;-34
2022/12/14 12:40:01;;;;;;;81.80;29.20;;;;;;;1.35;63.78;98378.75;99451;1350;23095;-30